sensor_id;sensor_type;location;lat;lon;timestamp;P1;durP1;ratioP1;P2;durP2;ratioP2
26600;SDS011;14241;49.260;10.496;2024-01-16T00:01:03;10.40;;;6.40;;
26600;SDS011;14241;49.260;10.496;2024-01-16T00:03:28;12.60;;;6.78;;
26600;SDS011;14241;49.260;10.496;2024-01-16T00:05:54;7.18;;;6.22;;
26600;SDS011;14241;49.260;10.496;2024-01-16T00:08:20;10.05;;;7.20;;
26600;SDS011;14241;49.260;10.496;2024-01-16T00:10:45;9.82;;;7.28;;
26600;SDS011;14241;49.260;10.496;2024-01-16T00:13:10;12.27;;;7.05;;
26600;SDS011;14241;49.260;10.496;2024-01-16T00:15:36;10.82;;;7.70;;
26600;SDS011;14241;49.260;10.496;2024-01-16T00:18:01;9.30;;;7.05;;
26600;SDS011;14241;49.260;10.496;2024-01-16T00:20:26;9.43;;;6.90;;
26600;SDS011;14241;49.260;10.496;2024-01-16T00:22:51;10.43;;;7.70;;
26600;SDS011;14241;49.260;10.496;2024-01-16T00:25:17;9.18;;;7.28;;
26600;SDS011;14241;49.260;10.496;2024-01-16T00:27:45;8.93;;;7.05;;
26600;SDS011;14241;49.260;10.496;2024-01-16T00:30:10;11.00;;;7.60;;
26600;SDS011;14241;49.260;10.496;2024-01-16T00:32:36;8.50;;;6.63;;
26600;SDS011;14241;49.260;10.496;2024-01-16T00:35:01;8.73;;;7.07;;
26600;SDS011;14241;49.260;10.496;2024-01-16T00:37:26;9.68;;;7.10;;
26600;SDS011;14241;49.260;10.496;2024-01-16T00:39:51;10.48;;;7.68;;
26600;SDS011;14241;49.260;10.496;2024-01-16T00:42:17;8.73;;;7.30;;
26600;SDS011;14241;49.260;10.496;2024-01-16T00:44:42;10.63;;;7.53;;
26600;SDS011;14241;49.260;10.496;2024-01-16T00:47:07;8.75;;;7.18;;
26600;SDS011;14241;49.260;10.496;2024-01-16T00:49:32;9.20;;;7.50;;
26600;SDS011;14241;49.260;10.496;2024-01-16T00:51:58;10.30;;;7.63;;
26600;SDS011;14241;49.260;10.496;2024-01-16T00:54:23;10.95;;;8.10;;
26600;SDS011;14241;49.260;10.496;2024-01-16T00:56:48;9.80;;;7.60;;
26600;SDS011;14241;49.260;10.496;2024-01-16T00:59:14;10.23;;;7.90;;
26600;SDS011;14241;49.260;10.496;2024-01-16T01:01:39;10.18;;;7.82;;
26600;SDS011;14241;49.260;10.496;2024-01-16T01:04:04;10.05;;;7.20;;
26600;SDS011;14241;49.260;10.496;2024-01-16T01:06:30;10.98;;;7.82;;
26600;SDS011;14241;49.260;10.496;2024-01-16T01:08:55;11.88;;;8.23;;
26600;SDS011;14241;49.260;10.496;2024-01-16T01:11:20;10.48;;;7.82;;
26600;SDS011;14241;49.260;10.496;2024-01-16T01:13:45;9.90;;;7.50;;
26600;SDS011;14241;49.260;10.496;2024-01-16T01:16:11;14.55;;;8.35;;
26600;SDS011;14241;49.260;10.496;2024-01-16T01:18:36;9.82;;;7.75;;
26600;SDS011;14241;49.260;10.496;2024-01-16T01:21:01;13.40;;;7.95;;
26600;SDS011;14241;49.260;10.496;2024-01-16T01:23:27;11.05;;;8.05;;
26600;SDS011;14241;49.260;10.496;2024-01-16T01:25:52;11.45;;;8.20;;
26600;SDS011;14241;49.260;10.496;2024-01-16T01:28:17;9.95;;;8.27;;
26600;SDS011;14241;49.260;10.496;2024-01-16T01:30:43;10.38;;;8.50;;
26600;SDS011;14241;49.260;10.496;2024-01-16T01:33:08;11.65;;;8.23;;
26600;SDS011;14241;49.260;10.496;2024-01-16T01:35:33;13.15;;;8.40;;
26600;SDS011;14241;49.260;10.496;2024-01-16T01:37:59;10.95;;;8.40;;
26600;SDS011;14241;49.260;10.496;2024-01-16T01:40:24;12.52;;;8.75;;
26600;SDS011;14241;49.260;10.496;2024-01-16T01:42:49;10.02;;;8.02;;
26600;SDS011;14241;49.260;10.496;2024-01-16T01:45:14;10.98;;;8.13;;
26600;SDS011;14241;49.260;10.496;2024-01-16T01:47:40;11.18;;;8.00;;
26600;SDS011;14241;49.260;10.496;2024-01-16T01:50:07;11.43;;;8.60;;
26600;SDS011;14241;49.260;10.496;2024-01-16T01:52:33;11.02;;;8.48;;
26600;SDS011;14241;49.260;10.496;2024-01-16T01:54:58;12.93;;;8.25;;
26600;SDS011;14241;49.260;10.496;2024-01-16T01:57:24;9.32;;;8.07;;
26600;SDS011;14241;49.260;10.496;2024-01-16T01:59:50;13.05;;;8.73;;
26600;SDS011;14241;49.260;10.496;2024-01-16T02:02:15;10.95;;;8.13;;
26600;SDS011;14241;49.260;10.496;2024-01-16T02:04:40;12.73;;;8.57;;
26600;SDS011;14241;49.260;10.496;2024-01-16T02:07:07;9.73;;;7.95;;
26600;SDS011;14241;49.260;10.496;2024-01-16T02:09:32;11.77;;;8.25;;
26600;SDS011;14241;49.260;10.496;2024-01-16T02:11:57;10.07;;;8.30;;
26600;SDS011;14241;49.260;10.496;2024-01-16T02:14:23;10.82;;;8.25;;
26600;SDS011;14241;49.260;10.496;2024-01-16T02:16:48;10.32;;;8.30;;
26600;SDS011;14241;49.260;10.496;2024-01-16T02:19:14;10.52;;;8.10;;
26600;SDS011;14241;49.260;10.496;2024-01-16T02:21:49;12.13;;;8.52;;
26600;SDS011;14241;49.260;10.496;2024-01-16T02:24:16;11.35;;;8.23;;
26600;SDS011;14241;49.260;10.496;2024-01-16T02:26:42;10.00;;;8.27;;
26600;SDS011;14241;49.260;10.496;2024-01-16T02:29:07;11.48;;;8.30;;
26600;SDS011;14241;49.260;10.496;2024-01-16T02:31:33;9.68;;;7.63;;
26600;SDS011;14241;49.260;10.496;2024-01-16T02:33:58;11.90;;;8.02;;
26600;SDS011;14241;49.260;10.496;2024-01-16T02:36:24;10.68;;;8.65;;
26600;SDS011;14241;49.260;10.496;2024-01-16T02:38:49;9.63;;;8.30;;
26600;SDS011;14241;49.260;10.496;2024-01-16T02:41:15;10.75;;;8.23;;
26600;SDS011;14241;49.260;10.496;2024-01-16T02:43:41;11.18;;;8.38;;
26600;SDS011;14241;49.260;10.496;2024-01-16T02:46:06;12.63;;;8.65;;
26600;SDS011;14241;49.260;10.496;2024-01-16T02:48:31;10.90;;;8.57;;
26600;SDS011;14241;49.260;10.496;2024-01-16T02:50:57;13.25;;;8.43;;
26600;SDS011;14241;49.260;10.496;2024-01-16T02:53:22;9.93;;;7.93;;
26600;SDS011;14241;49.260;10.496;2024-01-16T02:55:47;9.57;;;8.57;;
26600;SDS011;14241;49.260;10.496;2024-01-16T02:58:12;10.50;;;8.75;;
26600;SDS011;14241;49.260;10.496;2024-01-16T03:00:38;11.18;;;8.43;;
26600;SDS011;14241;49.260;10.496;2024-01-16T03:03:03;11.65;;;8.60;;
26600;SDS011;14241;49.260;10.496;2024-01-16T03:05:29;10.60;;;8.45;;
26600;SDS011;14241;49.260;10.496;2024-01-16T03:07:55;9.90;;;8.55;;
26600;SDS011;14241;49.260;10.496;2024-01-16T03:10:20;13.57;;;9.07;;
26600;SDS011;14241;49.260;10.496;2024-01-16T03:12:45;12.40;;;8.65;;
26600;SDS011;14241;49.260;10.496;2024-01-16T03:15:11;10.70;;;8.18;;
26600;SDS011;14241;49.260;10.496;2024-01-16T03:17:37;10.13;;;8.38;;
26600;SDS011;14241;49.260;10.496;2024-01-16T03:20:02;14.55;;;8.52;;
26600;SDS011;14241;49.260;10.496;2024-01-16T03:22:28;11.98;;;8.45;;
26600;SDS011;14241;49.260;10.496;2024-01-16T03:24:53;15.52;;;8.70;;
26600;SDS011;14241;49.260;10.496;2024-01-16T03:27:19;9.45;;;8.40;;
26600;SDS011;14241;49.260;10.496;2024-01-16T03:29:44;10.82;;;8.82;;
26600;SDS011;14241;49.260;10.496;2024-01-16T03:32:10;11.90;;;8.23;;
26600;SDS011;14241;49.260;10.496;2024-01-16T03:34:35;11.27;;;8.63;;
26600;SDS011;14241;49.260;10.496;2024-01-16T03:37:01;10.45;;;8.80;;
26600;SDS011;14241;49.260;10.496;2024-01-16T03:39:26;15.82;;;9.00;;
26600;SDS011;14241;49.260;10.496;2024-01-16T03:41:51;9.68;;;8.48;;
26600;SDS011;14241;49.260;10.496;2024-01-16T03:44:17;11.90;;;8.65;;
26600;SDS011;14241;49.260;10.496;2024-01-16T03:46:42;12.35;;;8.85;;
26600;SDS011;14241;49.260;10.496;2024-01-16T03:49:08;11.20;;;8.27;;
26600;SDS011;14241;49.260;10.496;2024-01-16T03:51:33;13.73;;;9.20;;
26600;SDS011;14241;49.260;10.496;2024-01-16T03:53:58;12.20;;;9.45;;
26600;SDS011;14241;49.260;10.496;2024-01-16T03:56:23;11.30;;;9.02;;
26600;SDS011;14241;49.260;10.496;2024-01-16T03:58:49;11.88;;;9.32;;
26600;SDS011;14241;49.260;10.496;2024-01-16T04:01:14;11.30;;;9.73;;
26600;SDS011;14241;49.260;10.496;2024-01-16T04:03:39;11.82;;;9.57;;
26600;SDS011;14241;49.260;10.496;2024-01-16T04:06:26;12.43;;;9.20;;
26600;SDS011;14241;49.260;10.496;2024-01-16T04:08:51;12.63;;;9.45;;
26600;SDS011;14241;49.260;10.496;2024-01-16T04:11:16;13.23;;;9.90;;
26600;SDS011;14241;49.260;10.496;2024-01-16T04:13:42;10.75;;;9.07;;
26600;SDS011;14241;49.260;10.496;2024-01-16T04:16:07;13.98;;;9.25;;
26600;SDS011;14241;49.260;10.496;2024-01-16T04:18:35;10.10;;;8.98;;
26600;SDS011;14241;49.260;10.496;2024-01-16T04:21:01;10.95;;;9.13;;
26600;SDS011;14241;49.260;10.496;2024-01-16T04:23:26;13.00;;;9.27;;
26600;SDS011;14241;49.260;10.496;2024-01-16T04:25:52;11.75;;;9.50;;
26600;SDS011;14241;49.260;10.496;2024-01-16T04:28:17;11.38;;;9.13;;
26600;SDS011;14241;49.260;10.496;2024-01-16T04:30:42;10.23;;;8.70;;
26600;SDS011;14241;49.260;10.496;2024-01-16T04:33:07;11.90;;;9.65;;
26600;SDS011;14241;49.260;10.496;2024-01-16T04:35:33;12.07;;;9.43;;
26600;SDS011;14241;49.260;10.496;2024-01-16T04:37:59;14.35;;;9.60;;
26600;SDS011;14241;49.260;10.496;2024-01-16T04:40:24;11.40;;;9.32;;
26600;SDS011;14241;49.260;10.496;2024-01-16T04:42:49;12.93;;;9.57;;
26600;SDS011;14241;49.260;10.496;2024-01-16T04:45:14;14.80;;;9.43;;
26600;SDS011;14241;49.260;10.496;2024-01-16T04:47:40;13.20;;;9.93;;
26600;SDS011;14241;49.260;10.496;2024-01-16T04:50:05;14.63;;;9.60;;
26600;SDS011;14241;49.260;10.496;2024-01-16T04:52:30;14.73;;;9.88;;
26600;SDS011;14241;49.260;10.496;2024-01-16T04:54:55;13.30;;;9.70;;
26600;SDS011;14241;49.260;10.496;2024-01-16T04:57:21;14.02;;;10.27;;
26600;SDS011;14241;49.260;10.496;2024-01-16T04:59:46;15.43;;;9.77;;
26600;SDS011;14241;49.260;10.496;2024-01-16T05:02:11;13.57;;;9.98;;
26600;SDS011;14241;49.260;10.496;2024-01-16T05:04:39;13.13;;;9.73;;
26600;SDS011;14241;49.260;10.496;2024-01-16T05:07:04;17.63;;;10.07;;
26600;SDS011;14241;49.260;10.496;2024-01-16T05:09:30;13.80;;;11.77;;
26600;SDS011;14241;49.260;10.496;2024-01-16T05:11:55;12.65;;;10.05;;
26600;SDS011;14241;49.260;10.496;2024-01-16T05:14:20;16.08;;;10.05;;
26600;SDS011;14241;49.260;10.496;2024-01-16T05:16:50;14.75;;;10.57;;
26600;SDS011;14241;49.260;10.496;2024-01-16T05:19:15;14.57;;;10.10;;
26600;SDS011;14241;49.260;10.496;2024-01-16T05:21:40;13.02;;;10.00;;
26600;SDS011;14241;49.260;10.496;2024-01-16T05:24:06;16.25;;;10.45;;
26600;SDS011;14241;49.260;10.496;2024-01-16T05:26:31;13.00;;;9.98;;
26600;SDS011;14241;49.260;10.496;2024-01-16T05:28:56;15.73;;;10.80;;
26600;SDS011;14241;49.260;10.496;2024-01-16T05:31:22;13.60;;;10.38;;
26600;SDS011;14241;49.260;10.496;2024-01-16T05:33:47;14.60;;;10.13;;
26600;SDS011;14241;49.260;10.496;2024-01-16T05:36:12;12.85;;;10.15;;
26600;SDS011;14241;49.260;10.496;2024-01-16T05:38:37;17.45;;;10.55;;
26600;SDS011;14241;49.260;10.496;2024-01-16T05:41:03;11.77;;;9.90;;
26600;SDS011;14241;49.260;10.496;2024-01-16T05:43:29;15.75;;;10.18;;
26600;SDS011;14241;49.260;10.496;2024-01-16T05:45:55;15.27;;;10.57;;
26600;SDS011;14241;49.260;10.496;2024-01-16T05:48:20;14.50;;;10.00;;
26600;SDS011;14241;49.260;10.496;2024-01-16T05:50:46;16.55;;;10.35;;
26600;SDS011;14241;49.260;10.496;2024-01-16T05:53:11;13.50;;;9.65;;
26600;SDS011;14241;49.260;10.496;2024-01-16T05:55:36;14.52;;;10.27;;
26600;SDS011;14241;49.260;10.496;2024-01-16T05:58:02;13.18;;;10.35;;
26600;SDS011;14241;49.260;10.496;2024-01-16T06:00:27;14.63;;;9.98;;
26600;SDS011;14241;49.260;10.496;2024-01-16T06:02:53;15.23;;;10.52;;
26600;SDS011;14241;49.260;10.496;2024-01-16T06:05:18;15.13;;;10.95;;
26600;SDS011;14241;49.260;10.496;2024-01-16T06:07:43;12.88;;;9.60;;
26600;SDS011;14241;49.260;10.496;2024-01-16T06:10:11;11.77;;;9.90;;
26600;SDS011;14241;49.260;10.496;2024-01-16T06:12:36;11.70;;;9.63;;
26600;SDS011;14241;49.260;10.496;2024-01-16T06:15:02;23.33;;;10.02;;
26600;SDS011;14241;49.260;10.496;2024-01-16T06:17:27;13.82;;;10.20;;
26600;SDS011;14241;49.260;10.496;2024-01-16T06:19:52;14.55;;;10.00;;
26600;SDS011;14241;49.260;10.496;2024-01-16T06:22:18;11.65;;;10.02;;
26600;SDS011;14241;49.260;10.496;2024-01-16T06:24:43;16.20;;;10.10;;
26600;SDS011;14241;49.260;10.496;2024-01-16T06:27:08;12.60;;;10.05;;
26600;SDS011;14241;49.260;10.496;2024-01-16T06:29:34;13.07;;;9.32;;
26600;SDS011;14241;49.260;10.496;2024-01-16T06:31:59;16.05;;;10.35;;
26600;SDS011;14241;49.260;10.496;2024-01-16T06:34:25;12.35;;;9.93;;
26600;SDS011;14241;49.260;10.496;2024-01-16T06:36:50;11.68;;;9.43;;
26600;SDS011;14241;49.260;10.496;2024-01-16T06:39:15;11.85;;;9.52;;
26600;SDS011;14241;49.260;10.496;2024-01-16T06:41:41;15.65;;;9.95;;
26600;SDS011;14241;49.260;10.496;2024-01-16T06:44:06;12.35;;;9.45;;
26600;SDS011;14241;49.260;10.496;2024-01-16T06:46:32;14.15;;;10.00;;
26600;SDS011;14241;49.260;10.496;2024-01-16T06:48:57;11.13;;;9.07;;
26600;SDS011;14241;49.260;10.496;2024-01-16T06:51:22;14.70;;;10.05;;
26600;SDS011;14241;49.260;10.496;2024-01-16T06:53:47;12.57;;;9.05;;
26600;SDS011;14241;49.260;10.496;2024-01-16T06:56:13;10.90;;;9.20;;
26600;SDS011;14241;49.260;10.496;2024-01-16T06:58:38;12.95;;;8.95;;
26600;SDS011;14241;49.260;10.496;2024-01-16T07:01:03;14.98;;;9.50;;
26600;SDS011;14241;49.260;10.496;2024-01-16T07:03:29;14.27;;;9.35;;
26600;SDS011;14241;49.260;10.496;2024-01-16T07:05:54;9.85;;;8.43;;
26600;SDS011;14241;49.260;10.496;2024-01-16T07:08:19;11.50;;;8.80;;
26600;SDS011;14241;49.260;10.496;2024-01-16T07:10:45;13.68;;;9.52;;
26600;SDS011;14241;49.260;10.496;2024-01-16T07:13:11;12.63;;;8.85;;
26600;SDS011;14241;49.260;10.496;2024-01-16T07:15:37;15.23;;;8.98;;
26600;SDS011;14241;49.260;10.496;2024-01-16T07:18:02;12.50;;;9.07;;
26600;SDS011;14241;49.260;10.496;2024-01-16T07:20:28;14.93;;;9.48;;
26600;SDS011;14241;49.260;10.496;2024-01-16T07:22:53;14.25;;;8.70;;
26600;SDS011;14241;49.260;10.496;2024-01-16T07:25:18;14.20;;;9.18;;
26600;SDS011;14241;49.260;10.496;2024-01-16T07:27:44;16.02;;;9.63;;
26600;SDS011;14241;49.260;10.496;2024-01-16T07:30:11;14.63;;;9.43;;
26600;SDS011;14241;49.260;10.496;2024-01-16T07:32:37;16.85;;;10.02;;
26600;SDS011;14241;49.260;10.496;2024-01-16T07:35:02;14.63;;;9.63;;
26600;SDS011;14241;49.260;10.496;2024-01-16T07:37:28;12.30;;;9.50;;
26600;SDS011;14241;49.260;10.496;2024-01-16T07:39:53;12.95;;;9.45;;
26600;SDS011;14241;49.260;10.496;2024-01-16T07:42:18;14.75;;;9.93;;
26600;SDS011;14241;49.260;10.496;2024-01-16T07:44:43;15.20;;;9.38;;
26600;SDS011;14241;49.260;10.496;2024-01-16T07:47:09;14.35;;;9.10;;
26600;SDS011;14241;49.260;10.496;2024-01-16T07:49:34;13.40;;;9.48;;
26600;SDS011;14241;49.260;10.496;2024-01-16T07:51:59;17.70;;;10.35;;
26600;SDS011;14241;49.260;10.496;2024-01-16T07:54:24;13.18;;;9.45;;
26600;SDS011;14241;49.260;10.496;2024-01-16T07:56:51;13.60;;;9.18;;
26600;SDS011;14241;49.260;10.496;2024-01-16T07:59:16;13.93;;;9.50;;
26600;SDS011;14241;49.260;10.496;2024-01-16T08:01:42;12.80;;;9.25;;
26600;SDS011;14241;49.260;10.496;2024-01-16T08:04:07;15.77;;;9.60;;
26600;SDS011;14241;49.260;10.496;2024-01-16T08:06:33;14.10;;;9.18;;
26600;SDS011;14241;49.260;10.496;2024-01-16T08:08:58;16.83;;;10.30;;
26600;SDS011;14241;49.260;10.496;2024-01-16T08:11:23;16.35;;;10.85;;
26600;SDS011;14241;49.260;10.496;2024-01-16T08:13:49;16.13;;;10.02;;
26600;SDS011;14241;49.260;10.496;2024-01-16T08:16:14;14.38;;;10.27;;
26600;SDS011;14241;49.260;10.496;2024-01-16T08:18:39;12.20;;;9.27;;
26600;SDS011;14241;49.260;10.496;2024-01-16T08:21:04;10.93;;;9.13;;
26600;SDS011;14241;49.260;10.496;2024-01-16T08:23:31;12.63;;;9.20;;
26600;SDS011;14241;49.260;10.496;2024-01-16T08:25:56;13.57;;;9.23;;
26600;SDS011;14241;49.260;10.496;2024-01-16T08:28:21;13.32;;;9.32;;
26600;SDS011;14241;49.260;10.496;2024-01-16T08:30:49;13.80;;;9.35;;
26600;SDS011;14241;49.260;10.496;2024-01-16T08:33:14;16.77;;;9.07;;
26600;SDS011;14241;49.260;10.496;2024-01-16T08:35:39;12.07;;;8.77;;
26600;SDS011;14241;49.260;10.496;2024-01-16T08:38:05;15.02;;;9.10;;
26600;SDS011;14241;49.260;10.496;2024-01-16T08:40:30;13.10;;;8.98;;
26600;SDS011;14241;49.260;10.496;2024-01-16T08:42:55;11.35;;;8.52;;
26600;SDS011;14241;49.260;10.496;2024-01-16T08:45:21;12.27;;;9.00;;
26600;SDS011;14241;49.260;10.496;2024-01-16T08:47:46;12.93;;;9.05;;
26600;SDS011;14241;49.260;10.496;2024-01-16T08:50:12;12.60;;;8.77;;
26600;SDS011;14241;49.260;10.496;2024-01-16T08:52:37;12.68;;;8.75;;
26600;SDS011;14241;49.260;10.496;2024-01-16T08:55:02;10.30;;;8.40;;
26600;SDS011;14241;49.260;10.496;2024-01-16T08:57:29;9.70;;;7.75;;
26600;SDS011;14241;49.260;10.496;2024-01-16T08:59:54;10.48;;;8.55;;
26600;SDS011;14241;49.260;10.496;2024-01-16T09:02:19;11.10;;;8.30;;
26600;SDS011;14241;49.260;10.496;2024-01-16T09:04:44;12.95;;;7.95;;
26600;SDS011;14241;49.260;10.496;2024-01-16T09:07:10;13.05;;;9.00;;
26600;SDS011;14241;49.260;10.496;2024-01-16T09:09:36;9.93;;;8.18;;
26600;SDS011;14241;49.260;10.496;2024-01-16T09:12:01;14.40;;;9.88;;
26600;SDS011;14241;49.260;10.496;2024-01-16T09:14:27;16.50;;;12.35;;
26600;SDS011;14241;49.260;10.496;2024-01-16T09:16:53;59.55;;;34.85;;
26600;SDS011;14241;49.260;10.496;2024-01-16T09:19:19;25.15;;;14.90;;
26600;SDS011;14241;49.260;10.496;2024-01-16T09:21:44;13.05;;;9.55;;
26600;SDS011;14241;49.260;10.496;2024-01-16T09:24:09;15.48;;;9.30;;
26600;SDS011;14241;49.260;10.496;2024-01-16T09:26:34;10.77;;;9.50;;
26600;SDS011;14241;49.260;10.496;2024-01-16T09:29:01;19.15;;;10.55;;
26600;SDS011;14241;49.260;10.496;2024-01-16T09:31:26;11.70;;;10.50;;
26600;SDS011;14241;49.260;10.496;2024-01-16T09:33:51;14.90;;;10.73;;
26600;SDS011;14241;49.260;10.496;2024-01-16T09:36:17;15.75;;;10.35;;
26600;SDS011;14241;49.260;10.496;2024-01-16T09:38:42;12.93;;;8.77;;
26600;SDS011;14241;49.260;10.496;2024-01-16T09:41:08;17.73;;;11.45;;
26600;SDS011;14241;49.260;10.496;2024-01-16T09:43:34;15.45;;;8.30;;
26600;SDS011;14241;49.260;10.496;2024-01-16T09:46:02;15.32;;;8.75;;
26600;SDS011;14241;49.260;10.496;2024-01-16T09:48:29;17.20;;;9.45;;
26600;SDS011;14241;49.260;10.496;2024-01-16T09:50:55;19.33;;;10.52;;
26600;SDS011;14241;49.260;10.496;2024-01-16T09:53:20;14.13;;;9.52;;
26600;SDS011;14241;49.260;10.496;2024-01-16T09:55:46;15.50;;;10.55;;
26600;SDS011;14241;49.260;10.496;2024-01-16T09:58:13;16.25;;;8.73;;
26600;SDS011;14241;49.260;10.496;2024-01-16T10:00:39;14.50;;;8.57;;
26600;SDS011;14241;49.260;10.496;2024-01-16T10:03:05;13.68;;;8.88;;
26600;SDS011;14241;49.260;10.496;2024-01-16T10:05:31;13.57;;;8.93;;
26600;SDS011;14241;49.260;10.496;2024-01-16T10:07:57;12.95;;;8.73;;
26600;SDS011;14241;49.260;10.496;2024-01-16T10:10:23;12.88;;;8.45;;
26600;SDS011;14241;49.260;10.496;2024-01-16T10:12:48;9.77;;;7.65;;
26600;SDS011;14241;49.260;10.496;2024-01-16T10:15:14;16.10;;;8.68;;
26600;SDS011;14241;49.260;10.496;2024-01-16T10:17:43;11.65;;;7.88;;
26600;SDS011;14241;49.260;10.496;2024-01-16T10:20:09;15.27;;;7.40;;
26600;SDS011;14241;49.260;10.496;2024-01-16T10:22:38;14.40;;;7.80;;
26600;SDS011;14241;49.260;10.496;2024-01-16T10:25:04;12.50;;;7.63;;
26600;SDS011;14241;49.260;10.496;2024-01-16T10:27:30;15.57;;;8.00;;
26600;SDS011;14241;49.260;10.496;2024-01-16T10:29:56;15.52;;;7.15;;
26600;SDS011;14241;49.260;10.496;2024-01-16T10:32:28;10.80;;;6.80;;
26600;SDS011;14241;49.260;10.496;2024-01-16T10:37:45;14.30;;;7.40;;
26600;SDS011;14241;49.260;10.496;2024-01-16T10:40:15;10.43;;;7.05;;
26600;SDS011;14241;49.260;10.496;2024-01-16T10:42:40;8.95;;;6.25;;
26600;SDS011;14241;49.260;10.496;2024-01-16T10:45:06;12.80;;;7.15;;
26600;SDS011;14241;49.260;10.496;2024-01-16T10:47:31;12.27;;;6.75;;
26600;SDS011;14241;49.260;10.496;2024-01-16T10:50:00;13.50;;;7.13;;
26600;SDS011;14241;49.260;10.496;2024-01-16T10:52:27;11.23;;;7.03;;
26600;SDS011;14241;49.260;10.496;2024-01-16T10:54:52;8.48;;;5.93;;
26600;SDS011;14241;49.260;10.496;2024-01-16T10:57:22;9.52;;;7.25;;
26600;SDS011;14241;49.260;10.496;2024-01-16T10:59:49;15.48;;;7.00;;
26600;SDS011;14241;49.260;10.496;2024-01-16T11:02:16;9.35;;;6.55;;
26600;SDS011;14241;49.260;10.496;2024-01-16T11:04:43;7.68;;;6.15;;
26600;SDS011;14241;49.260;10.496;2024-01-16T11:07:09;6.90;;;5.90;;
26600;SDS011;14241;49.260;10.496;2024-01-16T11:09:34;13.63;;;6.00;;
26600;SDS011;14241;49.260;10.496;2024-01-16T11:12:00;10.52;;;6.65;;
26600;SDS011;14241;49.260;10.496;2024-01-16T11:14:26;10.27;;;6.25;;
26600;SDS011;14241;49.260;10.496;2024-01-16T11:16:52;9.52;;;6.03;;
26600;SDS011;14241;49.260;10.496;2024-01-16T11:19:18;9.98;;;5.80;;
26600;SDS011;14241;49.260;10.496;2024-01-16T11:21:44;10.23;;;6.35;;
26600;SDS011;14241;49.260;10.496;2024-01-16T11:24:11;10.70;;;6.07;;
26600;SDS011;14241;49.260;10.496;2024-01-16T11:26:39;8.18;;;5.60;;
26600;SDS011;14241;49.260;10.496;2024-01-16T11:31:49;9.95;;;5.50;;
26600;SDS011;14241;49.260;10.496;2024-01-16T11:34:14;8.82;;;5.60;;
26600;SDS011;14241;49.260;10.496;2024-01-16T11:36:49;9.10;;;5.88;;
26600;SDS011;14241;49.260;10.496;2024-01-16T11:39:22;9.23;;;5.55;;
26600;SDS011;14241;49.260;10.496;2024-01-16T11:41:48;10.23;;;5.55;;
26600;SDS011;14241;49.260;10.496;2024-01-16T11:47:00;8.85;;;5.53;;
26600;SDS011;14241;49.260;10.496;2024-01-16T11:49:25;10.63;;;5.57;;
26600;SDS011;14241;49.260;10.496;2024-01-16T11:51:51;8.68;;;5.15;;
26600;SDS011;14241;49.260;10.496;2024-01-16T11:54:16;8.55;;;5.03;;
26600;SDS011;14241;49.260;10.496;2024-01-16T11:56:54;7.38;;;4.82;;
26600;SDS011;14241;49.260;10.496;2024-01-16T12:02:10;11.60;;;4.88;;
26600;SDS011;14241;49.260;10.496;2024-01-16T12:04:37;7.43;;;5.47;;
26600;SDS011;14241;49.260;10.496;2024-01-16T12:07:02;8.38;;;5.05;;
26600;SDS011;14241;49.260;10.496;2024-01-16T12:09:28;9.13;;;5.35;;
26600;SDS011;14241;49.260;10.496;2024-01-16T12:12:00;9.40;;;5.43;;
26600;SDS011;14241;49.260;10.496;2024-01-16T12:14:29;9.02;;;4.68;;
26600;SDS011;14241;49.260;10.496;2024-01-16T12:17:10;10.60;;;5.57;;
26600;SDS011;14241;49.260;10.496;2024-01-16T12:19:36;10.07;;;5.50;;
26600;SDS011;14241;49.260;10.496;2024-01-16T12:22:01;14.95;;;5.50;;
26600;SDS011;14241;49.260;10.496;2024-01-16T12:24:26;7.68;;;5.72;;
26600;SDS011;14241;49.260;10.496;2024-01-16T12:26:52;10.50;;;5.50;;
26600;SDS011;14241;49.260;10.496;2024-01-16T12:29:18;9.02;;;5.55;;
26600;SDS011;14241;49.260;10.496;2024-01-16T12:31:43;12.30;;;5.28;;
26600;SDS011;14241;49.260;10.496;2024-01-16T12:34:09;10.45;;;5.90;;
26600;SDS011;14241;49.260;10.496;2024-01-16T12:36:34;9.10;;;5.55;;
26600;SDS011;14241;49.260;10.496;2024-01-16T12:38:59;6.82;;;4.80;;
26600;SDS011;14241;49.260;10.496;2024-01-16T12:41:25;8.02;;;5.15;;
26600;SDS011;14241;49.260;10.496;2024-01-16T12:43:52;9.05;;;5.00;;
26600;SDS011;14241;49.260;10.496;2024-01-16T12:46:18;8.65;;;5.03;;
26600;SDS011;14241;49.260;10.496;2024-01-16T12:48:44;10.73;;;5.47;;
26600;SDS011;14241;49.260;10.496;2024-01-16T12:51:09;12.45;;;5.15;;
26600;SDS011;14241;49.260;10.496;2024-01-16T12:53:37;8.20;;;5.18;;
26600;SDS011;14241;49.260;10.496;2024-01-16T12:56:04;11.77;;;5.50;;
26600;SDS011;14241;49.260;10.496;2024-01-16T12:58:33;12.57;;;5.68;;
26600;SDS011;14241;49.260;10.496;2024-01-16T13:01:20;9.07;;;5.35;;
26600;SDS011;14241;49.260;10.496;2024-01-16T13:03:44;13.15;;;5.22;;
26600;SDS011;14241;49.260;10.496;2024-01-16T13:06:10;8.50;;;5.60;;
26600;SDS011;14241;49.260;10.496;2024-01-16T13:08:35;11.65;;;5.40;;
26600;SDS011;14241;49.260;10.496;2024-01-16T13:11:04;9.88;;;5.35;;
26600;SDS011;14241;49.260;10.496;2024-01-16T13:13:30;8.32;;;5.13;;
26600;SDS011;14241;49.260;10.496;2024-01-16T13:15:55;8.88;;;5.22;;
26600;SDS011;14241;49.260;10.496;2024-01-16T13:18:22;10.15;;;5.22;;
26600;SDS011;14241;49.260;10.496;2024-01-16T13:20:51;11.68;;;5.78;;
26600;SDS011;14241;49.260;10.496;2024-01-16T13:23:17;7.53;;;4.75;;
26600;SDS011;14241;49.260;10.496;2024-01-16T13:25:43;7.68;;;4.78;;
26600;SDS011;14241;49.260;10.496;2024-01-16T13:28:15;8.00;;;5.18;;
26600;SDS011;14241;49.260;10.496;2024-01-16T13:30:41;8.35;;;5.03;;
26600;SDS011;14241;49.260;10.496;2024-01-16T13:33:06;9.82;;;5.35;;
26600;SDS011;14241;49.260;10.496;2024-01-16T13:35:31;7.55;;;4.65;;
26600;SDS011;14241;49.260;10.496;2024-01-16T13:37:58;8.57;;;4.88;;
26600;SDS011;14241;49.260;10.496;2024-01-16T13:40:23;7.53;;;4.38;;
26600;SDS011;14241;49.260;10.496;2024-01-16T13:42:48;8.10;;;4.78;;
26600;SDS011;14241;49.260;10.496;2024-01-16T13:45:14;12.07;;;5.20;;
26600;SDS011;14241;49.260;10.496;2024-01-16T13:47:39;8.88;;;4.72;;
26600;SDS011;14241;49.260;10.496;2024-01-16T13:50:08;8.35;;;4.93;;
26600;SDS011;14241;49.260;10.496;2024-01-16T13:52:34;8.25;;;5.05;;
26600;SDS011;14241;49.260;10.496;2024-01-16T13:54:59;8.32;;;4.35;;
26600;SDS011;14241;49.260;10.496;2024-01-16T13:57:31;8.85;;;4.60;;
26600;SDS011;14241;49.260;10.496;2024-01-16T13:59:56;10.60;;;5.03;;
26600;SDS011;14241;49.260;10.496;2024-01-16T14:02:21;10.00;;;4.53;;
26600;SDS011;14241;49.260;10.496;2024-01-16T14:04:47;7.93;;;4.63;;
26600;SDS011;14241;49.260;10.496;2024-01-16T14:07:12;12.55;;;5.07;;
26600;SDS011;14241;49.260;10.496;2024-01-16T14:09:37;6.35;;;4.43;;
26600;SDS011;14241;49.260;10.496;2024-01-16T14:12:03;7.70;;;4.10;;
26600;SDS011;14241;49.260;10.496;2024-01-16T14:14:28;10.80;;;5.22;;
26600;SDS011;14241;49.260;10.496;2024-01-16T14:16:54;9.20;;;4.80;;
26600;SDS011;14241;49.260;10.496;2024-01-16T14:19:20;8.35;;;4.70;;
26600;SDS011;14241;49.260;10.496;2024-01-16T14:21:45;8.30;;;5.00;;
26600;SDS011;14241;49.260;10.496;2024-01-16T14:24:12;11.43;;;5.18;;
26600;SDS011;14241;49.260;10.496;2024-01-16T14:26:37;8.27;;;4.40;;